Aérodrome :
LOGIN :

S'inscrire | Disclaimer

   EN    FR    IT 

 










Légende :    VFR   VFR Marginal   IFR   IFR Intensif   IFR Très Intensif
Visi : 
Plafond : 
>= 8 km
>= 3000ft
5 à 8 km
1000 à 3000 ft
1500m à 5 km
500 à 1000 ft
800 à 1500m
200 à 500 ft
< 800m
< 200 ft
Symboles :   Orages  Brouillard  Fortes neiges  Fortes précipitations  Vent > 20 kt
SIGMETs :   Divers  Orages  Givrage  Turbulence  Onde Orograph.  Cendres Volcan.







- Altitude de l'aérodrome : 144 ft
- Code IATA : PGF
- Voir les cartes d'approche


LFMP - Perpignan

DERNIER METAR :
  • 202300Z AUTO 31006KT 290V350 9999 NCD 19/17 Q1014

METARs EXPIRÉS :
  • 202230Z AUTO 30006KT 270V340 9999 NCD 19/17 Q1015
  • 202200Z AUTO 25005KT 9999 FEW100/// OVC130/// 19/17 Q1014
  • 202130Z AUTO 32010KT 9999 -RA FEW047/// BKN100/// OVC120/// ///TCU 20/17 Q1015 BECMG NSC
  • 202100Z AUTO 29007KT 250V330 9999 -RA FEW094/// BKN110/// OVC140/// ///CB 20/17 Q1015 BECMG NSC
  • 202030Z AUTO 31010KT 270V340 9999 ///CB 20/17 Q1015 BECMG NSC
  • 202000Z AUTO 31007KT 9999 ///TCU 20/17 Q1014 BECMG NSC

TAF TAF LFMP
Valide du 20 à 15h jusqu'au 21 à 15h UTC


201400Z 2015/2115 09010KT 9999 SCT060
TEMPO 2015/2019 VRB10KT TSRA BKN050CB
BECMG 2019/2021 31010KT CAVOK
TEMPO 2111/2115 TSRA BKN070CB
ATIS : +33 4 68 63 75 12
Pas de NOTAMs connus pour ce terrain.
2 SIGMETs publiés pour la FIR Marseille (LFMM) :
 
Orages noyés dans la masse
LFMM SIGMET 7 VALID 202100/202300 LFPW
LFMM MARSEILLE FIR/UIR EMBD TS OBS WI N4400 E00245 - N4445 E00245 - N4515 E00315 - N4530 E00400 - N4345 E00415 - N4400 E00245 TOP FL360 MOV NE 15KT NC=
Annulation du SIGMET 5 
LFMM SIGMET 6 VALID 202105/202300 LFPW
LFMM MARSEILLE FIR/UIR CNL SIGMET 5 202100/202300=



MET'MAP, la Météo Aéronautique d'un coup d'oeil ! - Copyright ORBIFLY Décembre 2007 - Disclaimer

ORBIFLY MET'MAP TEAM :

Programmation & Développement : Alexandra Zaïnal
Conception & Développement : Baudouin d'Aumeries
Co-Programmation & Développement : Marc-Olivier Méhu
Soutien technique & logistique : Manuel Goepfert

Contact : metmap@orbifly.com




SOURCES & CREDITS :

   NOAA